createdAt,value
2016-10-15T00:00:17.180Z,99.99
2016-10-15T00:00:58.788Z,99.99
2016-10-15T00:02:58.847Z,99.99
2016-10-15T00:03:40.566Z,99.99
2016-10-15T00:04:22.346Z,99.99
2016-10-15T00:05:03.909Z,99.99
2016-10-15T00:05:45.626Z,99.99
2016-10-15T00:06:27.317Z,99.99
2016-10-15T00:07:09.010Z,99.99
2016-10-15T00:07:50.616Z,99.99
2016-10-15T00:08:32.367Z,99.99
2016-10-15T00:09:14.091Z,99.99
2016-10-15T00:09:55.773Z,99.99
2016-10-15T00:10:37.479Z,99.99
2016-10-15T00:11:19.223Z,99.99
2016-10-15T00:12:00.767Z,99.99
2016-10-15T00:12:42.463Z,99.99
2016-10-15T00:13:24.226Z,99.99
2016-10-15T00:15:13.692Z,99.99
2016-10-15T00:15:55.421Z,99.99
2016-10-15T00:16:37.093Z,99.99
2016-10-15T00:17:18.881Z,99.99
2016-10-15T00:18:00.609Z,99.99
2016-10-15T00:18:42.358Z,99.99
2016-10-15T00:19:24.124Z,99.99
2016-10-15T00:21:13.544Z,99.99
2016-10-15T00:21:55.310Z,99.99
2016-10-15T00:22:37.061Z,99.99
2016-10-15T00:24:31.701Z,99.99
2016-10-15T00:25:13.432Z,99.99
2016-10-15T00:25:55.136Z,99.99
2016-10-15T00:26:36.813Z,99.99
2016-10-15T00:27:18.555Z,99.99
2016-10-15T00:28:00.286Z,99.99
2016-10-15T00:28:42.000Z,99.99
2016-10-15T00:29:23.750Z,99.99
2016-10-15T00:30:05.456Z,99.99
2016-10-15T00:30:47.147Z,99.99
2016-10-15T00:31:28.786Z,99.99
2016-10-15T00:32:10.500Z,99.99
2016-10-15T00:32:52.153Z,99.99
2016-10-15T00:34:41.596Z,99.99
2016-10-15T00:35:23.132Z,99.99
2016-10-15T00:36:04.805Z,99.99
2016-10-15T00:36:46.469Z,99.99
2016-10-15T00:37:28.178Z,99.99
2016-10-15T00:38:09.907Z,99.99
2016-10-15T00:38:51.569Z,99.99
2016-10-15T00:39:33.301Z,99.99
2016-10-15T00:40:14.969Z,99.99
2016-10-15T00:40:56.721Z,99.99
2016-10-15T00:41:38.299Z,99.99
2016-10-15T00:43:27.711Z,99.99
2016-10-15T00:45:17.136Z,99.99
2016-10-15T00:45:58.732Z,99.99
2016-10-15T00:46:40.398Z,99.99
2016-10-15T00:48:29.762Z,99.99
2016-10-15T00:49:11.423Z,99.99
2016-10-15T00:49:53.080Z,99.99
2016-10-15T00:50:34.812Z,99.99
2016-10-15T00:51:16.510Z,99.99
2016-10-15T00:51:58.261Z,99.99
2016-10-15T00:52:39.824Z,99.99
2016-10-15T00:53:21.434Z,99.99
2016-10-15T00:55:36.857Z,99.99
2016-10-15T00:57:52.022Z,99.99
2016-10-15T00:58:32.567Z,99.99
2016-10-15T00:59:13.104Z,99.99
2016-10-15T00:59:53.637Z,99.99
2016-10-15T01:00:34.175Z,99.99
2016-10-15T01:01:14.718Z,99.99
2016-10-15T01:01:55.252Z,99.99
2016-10-15T01:02:35.787Z,99.99
2016-10-15T01:03:16.323Z,99.99
2016-10-15T01:03:56.857Z,99.99
2016-10-15T01:04:37.399Z,99.99
2016-10-15T01:05:17.935Z,99.99
2016-10-15T01:05:58.472Z,99.99
2016-10-15T01:06:39.007Z,99.99
2016-10-15T01:07:19.547Z,99.99
2016-10-15T01:08:00.080Z,99.99
2016-10-15T01:08:40.621Z,99.99
2016-10-15T01:09:21.148Z,99.99
2016-10-15T01:10:01.686Z,99.99
2016-10-15T01:10:42.228Z,99.99
2016-10-15T01:11:22.766Z,99.99
2016-10-15T01:12:03.302Z,99.99
2016-10-15T01:12:43.834Z,99.99
2016-10-15T01:13:24.376Z,99.99
2016-10-15T01:14:04.910Z,99.99
2016-10-15T01:14:45.452Z,99.99
2016-10-15T01:15:25.990Z,99.99
2016-10-15T01:16:06.529Z,99.99
2016-10-15T01:16:47.064Z,99.99
2016-10-15T01:17:27.606Z,99.99
2016-10-15T01:18:08.147Z,99.99
2016-10-15T01:18:48.676Z,99.99
2016-10-15T01:19:29.208Z,99.99
2016-10-15T01:20:09.743Z,99.99
2016-10-15T01:20:50.282Z,99.99
2016-10-15T01:21:30.810Z,99.99
2016-10-15T01:22:11.344Z,99.99
2016-10-15T01:22:51.886Z,99.99
2016-10-15T01:23:32.417Z,99.99
2016-10-15T01:24:12.949Z,99.99
2016-10-15T01:24:53.487Z,99.99
2016-10-15T01:25:34.021Z,99.99
2016-10-15T01:26:14.560Z,99.99
2016-10-15T01:26:55.100Z,99.99
2016-10-15T01:27:35.627Z,99.99
2016-10-15T01:28:16.161Z,99.99
2016-10-15T01:28:56.699Z,99.99
2016-10-15T01:29:37.237Z,99.99
2016-10-15T01:30:17.780Z,99.99
2016-10-15T01:30:58.314Z,99.99
2016-10-15T01:31:38.852Z,99.99
2016-10-15T01:32:19.378Z,99.99
2016-10-15T01:32:59.923Z,99.99
2016-10-15T01:33:40.466Z,99.99
2016-10-15T01:34:21.003Z,99.99
2016-10-15T01:35:01.534Z,99.99
2016-10-15T01:35:42.073Z,99.99
2016-10-15T01:36:22.598Z,99.99
2016-10-15T01:37:03.141Z,99.99
2016-10-15T01:37:43.678Z,99.99
2016-10-15T01:38:24.217Z,99.99
2016-10-15T01:39:04.761Z,99.99
2016-10-15T01:39:45.299Z,99.99
2016-10-15T01:40:25.835Z,99.99
2016-10-15T01:41:06.371Z,99.99
2016-10-15T01:41:46.902Z,99.99
2016-10-15T01:42:27.434Z,99.99
2016-10-15T01:43:07.978Z,99.99
2016-10-15T01:43:48.511Z,99.99
2016-10-15T01:44:29.045Z,99.99
2016-10-15T01:45:09.579Z,99.99
2016-10-15T01:45:50.122Z,99.99
2016-10-15T01:46:30.655Z,99.99
2016-10-15T01:47:11.194Z,99.99
2016-10-15T01:47:51.721Z,99.99
2016-10-15T01:48:32.271Z,99.99
2016-10-15T01:49:12.807Z,99.99
2016-10-15T01:49:53.349Z,99.99
2016-10-15T01:50:33.880Z,99.99
2016-10-15T01:51:14.429Z,99.99
2016-10-15T01:51:54.959Z,99.99
2016-10-15T01:52:35.501Z,99.99
2016-10-15T01:53:16.037Z,99.99
2016-10-15T01:53:56.573Z,99.99
2016-10-15T01:54:37.111Z,99.99
2016-10-15T01:55:17.654Z,99.99
2016-10-15T01:55:58.196Z,99.99
2016-10-15T01:56:38.735Z,99.99
2016-10-15T01:57:19.264Z,99.99
2016-10-15T01:57:59.794Z,99.99
2016-10-15T01:58:40.344Z,99.99
2016-10-15T01:59:20.876Z,99.99
2016-10-15T02:00:01.417Z,99.99
2016-10-15T02:00:41.952Z,99.99
2016-10-15T02:01:22.485Z,99.99
2016-10-15T02:02:03.018Z,99.99
2016-10-15T02:02:43.558Z,99.99
2016-10-15T02:03:24.093Z,99.99
2016-10-15T02:04:04.636Z,99.99
2016-10-15T02:04:45.166Z,99.99
2016-10-15T02:05:25.709Z,99.99
2016-10-15T02:06:06.253Z,99.99
2016-10-15T02:06:46.790Z,99.99
2016-10-15T02:07:27.324Z,99.99
2016-10-15T02:08:07.866Z,99.99
2016-10-15T02:08:48.403Z,99.99
2016-10-15T02:09:28.943Z,99.99
2016-10-15T02:10:09.480Z,99.99
2016-10-15T02:10:50.016Z,99.99
2016-10-15T02:11:30.556Z,99.99
2016-10-15T02:12:11.086Z,99.99
2016-10-15T02:12:51.620Z,99.99
2016-10-15T02:13:32.155Z,99.99
2016-10-15T02:14:12.695Z,99.99
2016-10-15T02:14:53.235Z,99.99
2016-10-15T02:15:33.775Z,99.99
2016-10-15T02:16:14.320Z,99.99
2016-10-15T02:16:54.851Z,99.99
2016-10-15T02:17:35.397Z,99.99
2016-10-15T02:18:15.931Z,99.99
2016-10-15T02:18:56.474Z,99.99
2016-10-15T02:19:37.015Z,99.99
2016-10-15T02:20:17.552Z,99.99
2016-10-15T02:20:58.089Z,99.99
2016-10-15T02:21:38.631Z,99.99
2016-10-15T02:22:19.166Z,99.99
2016-10-15T02:22:59.701Z,99.99
2016-10-15T02:23:40.238Z,99.99
2016-10-15T02:24:20.780Z,99.99
2016-10-15T02:25:01.323Z,99.99
2016-10-15T02:25:41.845Z,99.99
2016-10-15T02:26:22.384Z,99.99
2016-10-15T02:27:02.919Z,99.99
2016-10-15T02:27:43.444Z,99.99
2016-10-15T02:28:23.987Z,99.99
2016-10-15T02:29:04.523Z,99.99
2016-10-15T02:29:45.057Z,99.99
2016-10-15T02:30:25.601Z,99.99
2016-10-15T02:31:06.145Z,99.99
2016-10-15T02:31:46.686Z,99.99
2016-10-15T02:32:27.225Z,99.99
2016-10-15T02:33:07.763Z,99.99
2016-10-15T02:33:48.299Z,99.99
2016-10-15T02:34:28.836Z,99.99
2016-10-15T02:35:09.370Z,99.99
2016-10-15T02:35:49.902Z,99.99
2016-10-15T02:36:30.443Z,99.99
2016-10-15T02:37:10.978Z,99.99
2016-10-15T02:37:51.516Z,99.99
2016-10-15T02:38:32.048Z,99.99
2016-10-15T02:39:12.590Z,99.99
2016-10-15T02:39:53.123Z,99.99
2016-10-15T02:40:33.663Z,99.99
2016-10-15T02:41:14.205Z,99.99
2016-10-15T02:41:54.745Z,99.99
2016-10-15T02:42:35.282Z,99.99
2016-10-15T02:43:15.823Z,99.99
2016-10-15T02:43:56.351Z,99.99
2016-10-15T02:44:36.878Z,99.99
2016-10-15T02:45:17.416Z,99.99
2016-10-15T02:45:57.958Z,99.99
2016-10-15T02:46:38.501Z,99.99
2016-10-15T02:47:19.034Z,99.99
2016-10-15T02:47:59.578Z,99.99
2016-10-15T02:48:40.107Z,99.99
2016-10-15T02:49:20.643Z,99.99
2016-10-15T02:50:01.182Z,99.99
2016-10-15T02:50:41.718Z,99.99
2016-10-15T02:51:22.264Z,99.99
2016-10-15T02:52:02.788Z,99.99
2016-10-15T02:52:43.329Z,99.99
2016-10-15T02:53:23.860Z,99.99
2016-10-15T02:54:04.401Z,99.99
2016-10-15T02:54:44.938Z,99.99
2016-10-15T02:55:25.466Z,99.99
2016-10-15T02:56:06.020Z,99.99
2016-10-15T02:56:46.537Z,99.99
2016-10-15T02:57:27.070Z,99.99
2016-10-15T02:58:07.607Z,99.99
2016-10-15T02:58:48.138Z,99.99
2016-10-15T02:59:28.668Z,99.99
2016-10-15T03:00:09.204Z,99.99
2016-10-15T03:00:49.739Z,99.99
2016-10-15T03:01:30.284Z,99.99
2016-10-15T03:02:10.816Z,99.99
2016-10-15T03:02:51.359Z,99.99
2016-10-15T03:03:31.894Z,99.99
2016-10-15T03:04:12.437Z,99.99
2016-10-15T03:04:52.972Z,99.99
2016-10-15T03:05:33.512Z,99.99
2016-10-15T03:06:14.050Z,99.99
2016-10-15T03:06:54.591Z,99.99
2016-10-15T03:07:35.120Z,99.99
2016-10-15T03:08:15.658Z,99.99
2016-10-15T03:08:56.198Z,99.99
2016-10-15T03:09:36.736Z,99.99
2016-10-15T03:10:17.267Z,99.99
2016-10-15T03:10:57.804Z,99.99
2016-10-15T03:11:38.336Z,99.99
2016-10-15T03:12:18.872Z,99.99
2016-10-15T03:12:59.404Z,99.99
2016-10-15T03:13:39.940Z,99.99
2016-10-15T03:14:20.480Z,99.99
2016-10-15T03:15:01.017Z,99.99
2016-10-15T03:15:41.558Z,99.99
2016-10-15T03:16:22.099Z,99.99
2016-10-15T03:17:02.635Z,99.99
2016-10-15T03:17:43.173Z,99.99
2016-10-15T03:18:23.704Z,99.99
2016-10-15T03:19:04.244Z,99.99
2016-10-15T03:19:44.766Z,99.99
2016-10-15T03:20:25.304Z,99.99
2016-10-15T03:21:05.830Z,99.99
2016-10-15T03:21:46.378Z,99.99
2016-10-15T03:22:26.908Z,99.99
2016-10-15T03:23:07.448Z,99.99
2016-10-15T03:23:47.987Z,99.99
2016-10-15T03:24:28.525Z,99.99
2016-10-15T03:25:09.065Z,99.99
2016-10-15T03:25:49.603Z,99.99
2016-10-15T03:26:30.136Z,99.99
2016-10-15T03:27:10.673Z,99.99
2016-10-15T03:27:51.215Z,99.99
2016-10-15T03:28:31.751Z,99.99
2016-10-15T03:29:12.292Z,99.99
2016-10-15T03:29:52.832Z,99.99
2016-10-15T03:30:33.366Z,99.99
2016-10-15T03:31:13.890Z,99.99
2016-10-15T03:31:54.431Z,99.99
2016-10-15T03:32:34.966Z,99.99
2016-10-15T03:33:15.507Z,99.99
2016-10-15T03:33:56.046Z,99.99
2016-10-15T03:34:36.582Z,99.99
2016-10-15T03:35:17.118Z,99.99
2016-10-15T03:35:57.653Z,99.99
2016-10-15T03:36:38.180Z,99.99
2016-10-15T03:37:18.721Z,99.99
2016-10-15T03:37:59.260Z,99.99
2016-10-15T03:38:39.799Z,99.99
2016-10-15T03:39:20.338Z,99.99
2016-10-15T03:40:00.882Z,99.99
2016-10-15T03:40:41.411Z,99.99
2016-10-15T03:41:21.945Z,99.99
2016-10-15T03:42:02.485Z,99.99
2016-10-15T03:42:43.026Z,99.99
2016-10-15T03:43:23.566Z,99.99
2016-10-15T03:44:04.108Z,99.99
2016-10-15T03:44:44.655Z,99.99
2016-10-15T03:45:25.199Z,99.99
2016-10-15T03:46:05.745Z,99.99
2016-10-15T03:46:46.288Z,99.99
2016-10-15T03:47:26.828Z,99.99
2016-10-15T03:48:07.373Z,99.99
2016-10-15T03:48:47.906Z,99.99
2016-10-15T03:49:28.445Z,99.99
2016-10-15T03:50:08.995Z,99.99
2016-10-15T03:50:49.518Z,99.99
2016-10-15T03:51:30.065Z,99.99
2016-10-15T03:52:10.607Z,99.99
2016-10-15T03:52:51.153Z,99.99
2016-10-15T03:53:31.691Z,99.99
2016-10-15T03:54:12.243Z,99.99
2016-10-15T03:54:52.829Z,99.99
2016-10-15T03:55:33.368Z,99.99
2016-10-15T03:56:13.910Z,99.99
2016-10-15T03:56:54.452Z,99.99
2016-10-15T03:57:34.989Z,99.99
2016-10-15T03:58:15.535Z,99.99
2016-10-15T03:58:56.075Z,99.99
2016-10-15T03:59:36.604Z,99.99
2016-10-15T04:00:17.141Z,99.99
2016-10-15T04:00:57.675Z,99.99
2016-10-15T04:01:38.204Z,99.99
2016-10-15T04:02:18.743Z,99.99
2016-10-15T04:02:59.284Z,99.99
2016-10-15T04:03:39.828Z,99.99
2016-10-15T04:04:20.357Z,99.99
2016-10-15T04:05:00.897Z,99.99
2016-10-15T04:05:41.447Z,99.99
2016-10-15T04:06:21.986Z,99.99
2016-10-15T04:07:02.527Z,99.99
2016-10-15T04:07:43.072Z,99.99
2016-10-15T04:08:23.615Z,99.99
2016-10-15T04:09:04.158Z,99.99
2016-10-15T04:09:44.686Z,99.99
2016-10-15T04:10:25.222Z,99.99
2016-10-15T04:11:05.762Z,99.99
2016-10-15T04:11:46.295Z,99.99
2016-10-15T04:12:26.835Z,99.99
2016-10-15T04:13:07.372Z,99.99
2016-10-15T04:13:47.911Z,99.99
2016-10-15T04:14:28.454Z,99.99
2016-10-15T04:15:08.988Z,99.99
2016-10-15T04:15:49.528Z,99.99
2016-10-15T04:16:30.056Z,99.99
2016-10-15T04:17:10.597Z,99.99
2016-10-15T04:17:51.138Z,99.99
2016-10-15T04:18:31.682Z,99.99
2016-10-15T04:19:12.227Z,99.99
2016-10-15T04:19:52.766Z,99.99
2016-10-15T04:20:33.306Z,99.99
2016-10-15T04:21:13.844Z,99.99
2016-10-15T04:21:54.381Z,99.99
2016-10-15T04:22:34.917Z,99.99
2016-10-15T04:23:15.463Z,99.99
2016-10-15T04:23:56.006Z,99.99
2016-10-15T04:24:36.546Z,99.99
2016-10-15T04:25:17.093Z,99.99
2016-10-15T04:25:57.630Z,99.99
2016-10-15T04:26:38.171Z,99.99
2016-10-15T04:27:18.709Z,99.99
2016-10-15T04:27:59.240Z,99.99
2016-10-15T04:28:39.786Z,99.99
2016-10-15T04:29:20.335Z,99.99
2016-10-15T04:30:00.870Z,99.99
2016-10-15T04:30:41.421Z,99.99
2016-10-15T04:31:21.951Z,99.99
2016-10-15T04:32:02.480Z,99.99
2016-10-15T04:32:43.013Z,99.99
2016-10-15T04:33:23.548Z,99.99
2016-10-15T04:34:04.092Z,99.99
2016-10-15T04:34:44.623Z,99.99
2016-10-15T04:35:25.163Z,99.99
2016-10-15T04:36:05.704Z,99.99
2016-10-15T04:36:46.245Z,99.99
2016-10-15T04:37:26.791Z,99.99
2016-10-15T04:38:07.334Z,99.99
2016-10-15T04:38:47.865Z,99.99
2016-10-15T04:39:28.401Z,99.99
2016-10-15T04:40:08.948Z,99.99
2016-10-15T04:40:49.480Z,99.99
2016-10-15T04:41:30.016Z,99.99
2016-10-15T04:42:10.560Z,99.99
2016-10-15T04:42:51.090Z,99.99
2016-10-15T04:43:31.627Z,99.99
2016-10-15T04:44:12.173Z,99.84
2016-10-15T04:44:52.706Z,99.84
2016-10-15T04:45:33.248Z,99.94
2016-10-15T04:46:13.771Z,99.94
2016-10-15T04:46:54.313Z,99.94
2016-10-15T04:47:34.852Z,99.84
2016-10-15T04:48:15.394Z,99.65
2016-10-15T04:48:55.931Z,99.99
2016-10-15T04:49:36.470Z,99.08
2016-10-15T04:50:17.006Z,99.55
2016-10-15T04:50:57.540Z,99.51
2016-10-15T04:51:38.082Z,99.32
2016-10-15T04:52:18.617Z,99.37
2016-10-15T04:52:59.147Z,99.6
2016-10-15T04:53:39.688Z,99.41
2016-10-15T04:54:20.238Z,98.65
2016-10-15T04:55:00.765Z,99.04
2016-10-15T04:55:41.310Z,99.04
2016-10-15T04:56:21.844Z,99.22
2016-10-15T04:57:02.384Z,99.04
2016-10-15T04:57:42.922Z,98.27
2016-10-15T04:58:23.462Z,98.27
2016-10-15T04:59:04.010Z,98.65
2016-10-15T04:59:44.551Z,98.85
2016-10-15T05:00:25.078Z,99.04
2016-10-15T05:01:05.617Z,98.46
2016-10-15T05:01:46.154Z,98.75
2016-10-15T05:02:26.678Z,98.65
2016-10-15T05:03:07.221Z,98.27
2016-10-15T05:03:47.763Z,98.27
2016-10-15T05:04:28.303Z,98.18
2016-10-15T05:05:08.834Z,98.46
2016-10-15T05:05:49.367Z,97.51
2016-10-15T05:06:29.900Z,97.61
2016-10-15T05:07:10.448Z,97.89
2016-10-15T05:07:50.984Z,97.8
2016-10-15T05:08:31.528Z,97.8
2016-10-15T05:09:12.069Z,97.61
2016-10-15T05:09:52.615Z,98.08
2016-10-15T05:10:33.148Z,97.89
2016-10-15T05:11:13.683Z,97.8
2016-10-15T05:11:54.219Z,97.7
2016-10-15T05:12:34.754Z,97.22
2016-10-15T05:13:15.300Z,97.22
2016-10-15T05:13:55.839Z,97.13
2016-10-15T05:14:36.379Z,97.41
2016-10-15T05:15:16.923Z,97.41
2016-10-15T05:15:57.490Z,97.22
2016-10-15T05:16:38.028Z,97.22
2016-10-15T05:17:18.573Z,97.7
2016-10-15T05:17:59.114Z,97.13
2016-10-15T05:18:39.654Z,96.94
2016-10-15T05:19:20.197Z,96.94
2016-10-15T05:20:00.733Z,97.51
2016-10-15T05:20:41.273Z,97.41
2016-10-15T05:21:21.812Z,97.22
2016-10-15T05:22:02.365Z,97.13
2016-10-15T05:22:42.900Z,96.84
2016-10-15T05:23:23.440Z,97.22
2016-10-15T05:24:03.979Z,96.65
2016-10-15T05:24:44.526Z,96.94
2016-10-15T05:25:25.067Z,97.03
2016-10-15T05:26:05.602Z,96.84
2016-10-15T05:26:46.139Z,96.75
2016-10-15T05:27:26.673Z,97.03
2016-10-15T05:28:07.213Z,96.94
2016-10-15T05:28:47.751Z,96.84
2016-10-15T05:29:28.292Z,97.13
2016-10-15T05:30:08.839Z,97.03
2016-10-15T05:30:49.376Z,97.13
2016-10-15T05:31:29.918Z,96.56
2016-10-15T05:32:10.463Z,96.65
2016-10-15T05:32:51.001Z,96.46
2016-10-15T05:33:31.539Z,96.84
2016-10-15T05:34:12.079Z,96.56
2016-10-15T05:34:52.614Z,96.75
2016-10-15T05:35:33.154Z,96.84
2016-10-15T05:36:13.691Z,96.36
2016-10-15T05:36:54.227Z,96.94
2016-10-15T05:37:34.755Z,96.08
2016-10-15T05:38:15.297Z,96.22
2016-10-15T05:38:55.835Z,96.17
2016-10-15T05:39:36.377Z,96.65
2016-10-15T05:40:16.913Z,96.75
2016-10-15T05:40:57.460Z,96.75
2016-10-15T05:41:38.001Z,96.84
2016-10-15T05:42:18.545Z,96.89
2016-10-15T05:42:59.081Z,96.8
2016-10-15T05:43:39.628Z,96.61
2016-10-15T05:44:20.162Z,95.94
2016-10-15T05:45:00.705Z,96.32
2016-10-15T05:45:41.248Z,96.22
2016-10-15T05:46:21.785Z,95.84
2016-10-15T05:47:02.327Z,96.41
2016-10-15T05:47:42.866Z,96.41
2016-10-15T05:48:23.404Z,96.7
2016-10-15T05:49:03.941Z,96.41
2016-10-15T05:49:44.480Z,96.41
2016-10-15T05:50:25.019Z,96.22
2016-10-15T05:51:05.559Z,96.51
2016-10-15T05:51:46.102Z,96.51
2016-10-15T05:52:26.639Z,96.41
2016-10-15T05:53:07.177Z,96.51
2016-10-15T05:53:47.712Z,96.32
2016-10-15T05:54:28.254Z,96.51
2016-10-15T05:55:08.797Z,96.61
2016-10-15T05:55:49.339Z,96.7
2016-10-15T05:56:29.879Z,96.7
2016-10-15T05:57:10.417Z,95.84
2016-10-15T05:57:50.960Z,96.32
2016-10-15T05:58:31.493Z,95.65
2016-10-15T05:59:12.024Z,95.65
2016-10-15T05:59:52.575Z,96.22
2016-10-15T06:00:33.113Z,95.84
2016-10-15T06:01:13.661Z,95.84
2016-10-15T06:01:54.203Z,96.13
2016-10-15T06:02:34.744Z,96.22
2016-10-15T06:03:15.282Z,96.41
2016-10-15T06:03:55.821Z,96.03
2016-10-15T06:04:36.362Z,96.22
2016-10-15T06:05:16.900Z,95.75
2016-10-15T06:05:57.441Z,95.75
2016-10-15T06:06:37.981Z,96.03
2016-10-15T06:07:18.520Z,95.56
2016-10-15T06:07:59.057Z,95.65
2016-10-15T06:08:39.596Z,96.51
2016-10-15T06:09:20.130Z,95.84
2016-10-15T06:10:00.668Z,96.51
2016-10-15T06:10:41.205Z,96.7
2016-10-15T06:11:21.747Z,96.13
2016-10-15T06:12:02.284Z,96.61
2016-10-15T06:12:42.826Z,96.41
2016-10-15T06:13:23.369Z,95.56
2016-10-15T06:14:03.910Z,97.08
2016-10-15T06:14:44.454Z,96.8
2016-10-15T06:15:24.985Z,96.75
2016-10-15T06:16:05.530Z,96.27
2016-10-15T06:16:46.059Z,96.27
2016-10-15T06:17:26.603Z,96.84
2016-10-15T06:18:07.141Z,96.56
2016-10-15T06:18:47.669Z,96.84
2016-10-15T06:19:28.217Z,97.13
2016-10-15T06:20:08.757Z,97.08
2016-10-15T06:20:49.301Z,96.65
2016-10-15T06:21:29.835Z,97.46
2016-10-15T06:22:10.370Z,97.17
2016-10-15T06:22:50.915Z,97.22
2016-10-15T06:23:31.454Z,97.37
2016-10-15T06:24:11.997Z,97.32
2016-10-15T06:24:52.540Z,97.75
2016-10-15T06:25:33.085Z,97.61
2016-10-15T06:26:13.624Z,97.89
2016-10-15T06:26:54.162Z,97.99
2016-10-15T06:27:34.691Z,97.75
2016-10-15T06:28:15.221Z,98.18
2016-10-15T06:28:55.762Z,97.61
2016-10-15T06:29:36.305Z,98.36
2016-10-15T06:30:16.850Z,98.42
2016-10-15T06:30:57.393Z,97.94
2016-10-15T06:31:37.943Z,98.13
2016-10-15T06:32:18.491Z,97.99
2016-10-15T06:32:59.032Z,98.22
2016-10-15T06:33:39.564Z,98.56
2016-10-15T06:34:20.118Z,98.8
2016-10-15T06:35:00.652Z,98.42
2016-10-15T06:35:41.189Z,98.32
2016-10-15T06:36:21.733Z,98.32
2016-10-15T06:37:02.261Z,98.42
2016-10-15T06:37:42.802Z,98.99
2016-10-15T06:38:23.348Z,98.8
2016-10-15T06:39:03.894Z,98.51
2016-10-15T06:39:44.431Z,98.51
2016-10-15T06:40:24.975Z,98.7
2016-10-15T06:41:05.519Z,98.8
2016-10-15T06:41:46.051Z,98.7
2016-10-15T06:42:26.586Z,99.08
2016-10-15T06:43:07.153Z,99.27
2016-10-15T06:43:47.687Z,98.8
2016-10-15T06:44:28.285Z,98.9
2016-10-15T06:45:08.943Z,99.56
2016-10-15T06:45:49.553Z,99.37
2016-10-15T06:46:30.096Z,99.66
2016-10-15T06:47:10.706Z,99.66
2016-10-15T06:47:51.303Z,99.75
2016-10-15T06:48:31.986Z,99.66
2016-10-15T06:49:12.596Z,99.75
2016-10-15T06:49:53.158Z,99.46
2016-10-15T06:50:33.761Z,99.37
2016-10-15T06:51:14.351Z,99.46
2016-10-15T06:51:54.926Z,99.18
2016-10-15T06:52:35.554Z,99.95
2016-10-15T06:53:16.095Z,99.85
2016-10-15T06:53:56.633Z,99.75
2016-10-15T06:54:37.185Z,99.85
2016-10-15T06:55:17.718Z,99.56
2016-10-15T06:55:58.263Z,99.95
2016-10-15T06:56:38.803Z,99.99
2016-10-15T06:57:19.341Z,99.75
2016-10-15T06:57:59.882Z,99.99
2016-10-15T06:58:40.419Z,99.66
2016-10-15T06:59:20.970Z,99.99
2016-10-15T07:00:01.506Z,99.99
2016-10-15T07:00:42.051Z,99.75
2016-10-15T07:01:22.589Z,99.85
2016-10-15T07:02:03.127Z,99.99
2016-10-15T07:02:43.671Z,99.99
2016-10-15T07:03:24.212Z,99.99
2016-10-15T07:04:04.755Z,99.99
2016-10-15T07:04:45.429Z,99.99
2016-10-15T07:05:25.959Z,99.99
2016-10-15T07:06:06.489Z,99.99
2016-10-15T07:06:47.016Z,99.99
2016-10-15T07:07:27.559Z,99.99
2016-10-15T07:08:08.103Z,99.99
2016-10-15T07:08:48.658Z,99.99
2016-10-15T07:09:29.194Z,99.99
2016-10-15T07:10:09.737Z,99.99
2016-10-15T07:10:50.277Z,99.99
2016-10-15T07:11:30.817Z,99.99
2016-10-15T07:12:11.355Z,99.99
2016-10-15T07:12:51.887Z,99.99
2016-10-15T07:13:32.417Z,99.99
2016-10-15T07:14:12.965Z,99.99
2016-10-15T07:14:53.516Z,99.99
2016-10-15T07:15:34.058Z,99.99
2016-10-15T07:16:14.604Z,99.99
2016-10-15T07:16:55.143Z,99.99
2016-10-15T07:17:35.688Z,99.99
2016-10-15T07:18:16.222Z,99.99
2016-10-15T07:18:56.753Z,99.99
2016-10-15T07:19:37.290Z,99.99
2016-10-15T07:20:17.834Z,99.99
2016-10-15T07:20:58.363Z,99.99
2016-10-15T07:21:38.909Z,99.99
2016-10-15T07:22:19.451Z,99.99
2016-10-15T07:23:00.004Z,99.99
2016-10-15T07:23:40.549Z,99.99
2016-10-15T07:24:21.140Z,99.99
2016-10-15T07:25:01.678Z,99.99
2016-10-15T07:25:42.219Z,99.99
2016-10-15T07:26:22.765Z,99.99
2016-10-15T07:27:03.341Z,99.99
2016-10-15T07:27:43.900Z,99.99
2016-10-15T07:28:24.553Z,99.99
2016-10-15T07:29:05.002Z,99.99
2016-10-15T07:29:45.543Z,99.99
2016-10-15T07:30:26.089Z,99.99
2016-10-15T07:31:06.695Z,99.99
2016-10-15T07:31:47.259Z,99.99
2016-10-15T07:32:27.793Z,99.99
2016-10-15T07:33:08.351Z,99.99
2016-10-15T07:33:48.888Z,99.99
2016-10-15T07:34:29.430Z,99.99
2016-10-15T07:35:10.004Z,99.99
2016-10-15T07:35:50.534Z,99.99
2016-10-15T07:36:31.068Z,99.99
2016-10-15T07:37:11.616Z,99.99
2016-10-15T07:37:52.169Z,99.99
2016-10-15T07:38:32.717Z,99.99
2016-10-15T07:39:13.258Z,99.99
2016-10-15T07:39:53.800Z,99.99
2016-10-15T07:40:34.342Z,99.99
2016-10-15T07:41:14.887Z,99.99
2016-10-15T07:41:55.436Z,99.99
2016-10-15T07:42:35.989Z,99.99
2016-10-15T07:43:16.527Z,99.99
2016-10-15T07:43:57.077Z,99.99
2016-10-15T07:44:37.613Z,99.99
2016-10-15T07:45:18.171Z,99.99
2016-10-15T07:45:58.722Z,99.99
2016-10-15T07:46:39.281Z,99.99
2016-10-15T07:47:19.824Z,99.99
2016-10-15T07:48:00.368Z,99.99
2016-10-15T07:48:40.908Z,99.99
2016-10-15T07:49:21.442Z,99.99
2016-10-15T07:50:01.976Z,99.99
2016-10-15T07:50:42.535Z,99.99
2016-10-15T07:51:23.082Z,99.99
2016-10-15T07:52:03.635Z,99.99
2016-10-15T07:52:44.183Z,99.99
2016-10-15T07:53:24.733Z,99.99
2016-10-15T07:54:05.281Z,99.99
2016-10-15T07:54:45.821Z,99.99
2016-10-15T07:55:26.369Z,99.99
2016-10-15T07:56:06.918Z,99.99
2016-10-15T07:56:47.460Z,99.99
2016-10-15T07:57:27.995Z,99.99
2016-10-15T07:58:08.502Z,99.99
2016-10-15T07:58:48.988Z,99.99
2016-10-15T07:59:29.514Z,99.99
2016-10-15T08:00:10.044Z,99.99
2016-10-15T08:00:50.591Z,99.99
2016-10-15T08:01:31.151Z,99.99
2016-10-15T08:02:11.672Z,99.99
2016-10-15T08:02:52.221Z,99.99
2016-10-15T08:03:32.764Z,99.99
2016-10-15T08:04:13.322Z,99.99
2016-10-15T08:04:53.863Z,99.99
2016-10-15T08:05:34.421Z,99.99
2016-10-15T08:06:14.957Z,99.99
2016-10-15T08:06:55.522Z,99.99
2016-10-15T08:07:36.074Z,99.99
2016-10-15T08:08:16.647Z,99.99
2016-10-15T08:08:57.179Z,99.99
2016-10-15T08:09:37.675Z,99.99
2016-10-15T08:10:18.189Z,99.99
2016-10-15T08:10:58.673Z,99.99
2016-10-15T08:11:39.269Z,99.99
2016-10-15T08:12:19.764Z,99.99
2016-10-15T08:13:00.280Z,99.99
2016-10-15T08:13:40.813Z,99.99
2016-10-15T08:14:21.384Z,99.99
2016-10-15T08:15:01.910Z,99.99
2016-10-15T08:15:42.469Z,99.99
2016-10-15T08:16:22.969Z,99.99
2016-10-15T08:17:03.466Z,99.99
2016-10-15T08:17:43.963Z,99.99
2016-10-15T08:18:24.466Z,99.99
2016-10-15T08:19:05.005Z,99.99
2016-10-15T08:19:45.521Z,99.99
2016-10-15T08:20:26.053Z,99.99
2016-10-15T08:22:55.539Z,99.99
2016-10-15T08:23:36.074Z,99.99
2016-10-15T08:24:16.612Z,99.99
2016-10-15T08:24:57.155Z,99.99
2016-10-15T08:25:37.696Z,99.99
2016-10-15T08:26:18.221Z,99.99
2016-10-15T08:26:58.757Z,99.99
2016-10-15T08:27:39.292Z,99.99
2016-10-15T08:28:19.847Z,99.99
2016-10-15T08:29:00.389Z,99.99
2016-10-15T08:29:40.931Z,99.99
2016-10-15T08:30:21.467Z,99.99
2016-10-15T08:31:02.005Z,99.99
2016-10-15T08:31:42.595Z,99.99
2016-10-15T08:32:23.162Z,99.99
2016-10-15T08:33:03.695Z,99.99
2016-10-15T08:33:44.226Z,99.99
2016-10-15T08:34:24.744Z,99.99
2016-10-15T08:35:05.272Z,99.99
2016-10-15T08:35:45.820Z,99.99
2016-10-15T08:36:26.354Z,99.99
2016-10-15T08:37:06.896Z,99.99
2016-10-15T08:37:47.439Z,99.99
2016-10-15T08:38:27.976Z,99.99
2016-10-15T08:39:08.519Z,99.99
2016-10-15T08:39:49.054Z,99.99
2016-10-15T08:40:29.585Z,99.99
2016-10-15T08:41:10.113Z,99.99
2016-10-15T08:41:50.654Z,99.99
2016-10-15T08:42:31.193Z,99.99
2016-10-15T08:43:11.728Z,99.99
2016-10-15T08:43:52.245Z,99.99
2016-10-15T08:44:32.772Z,99.99
2016-10-15T08:45:13.314Z,99.99
2016-10-15T08:45:53.852Z,99.99
2016-10-15T08:46:34.409Z,99.99
2016-10-15T08:47:14.985Z,99.99
2016-10-15T08:47:55.536Z,99.99
2016-10-15T08:48:36.065Z,99.99
2016-10-15T08:49:16.607Z,99.95
2016-10-15T08:49:57.135Z,99.66
2016-10-15T08:50:37.682Z,99.66
2016-10-15T08:51:18.225Z,99.19
2016-10-15T08:51:58.772Z,98.8
2016-10-15T08:52:39.317Z,99.09
2016-10-15T08:53:19.853Z,98.52
2016-10-15T08:54:00.381Z,98.9
2016-10-15T08:54:40.924Z,98.61
2016-10-15T08:55:21.411Z,99.09
2016-10-15T08:56:01.886Z,98.99
2016-10-15T08:56:42.364Z,98.33
2016-10-15T08:57:22.850Z,98.9
2016-10-15T08:58:03.334Z,98.99